sensor_id;sensor_type;location;lat;lon;timestamp;pressure;altitude;pressure_sealevel;temperature;humidity
75192;BME280;63771;52.580;9.734;2022-10-16T00:02:21;100686.38;;;12.57;80.53
75192;BME280;63771;52.580;9.734;2022-10-16T00:04:46;100686.16;;;12.53;80.38
75192;BME280;63771;52.580;9.734;2022-10-16T00:07:12;100685.16;;;12.51;80.43
75192;BME280;63771;52.580;9.734;2022-10-16T00:09:37;100685.81;;;12.49;80.82
75192;BME280;63771;52.580;9.734;2022-10-16T00:12:03;100687.25;;;12.45;81.17
75192;BME280;63771;52.580;9.734;2022-10-16T00:14:29;100684.47;;;12.42;81.21
75192;BME280;63771;52.580;9.734;2022-10-16T00:16:55;100693.69;;;12.40;81.13
75192;BME280;63771;52.580;9.734;2022-10-16T00:19:20;100689.13;;;12.36;81.21
75192;BME280;63771;52.580;9.734;2022-10-16T00:21:45;100689.81;;;12.34;81.38
75192;BME280;63771;52.580;9.734;2022-10-16T00:24:11;100693.00;;;12.31;81.82
75192;BME280;63771;52.580;9.734;2022-10-16T00:26:37;100692.03;;;12.29;81.66
75192;BME280;63771;52.580;9.734;2022-10-16T00:29:04;100696.16;;;12.27;81.51
75192;BME280;63771;52.580;9.734;2022-10-16T00:31:29;100696.91;;;12.26;81.75
75192;BME280;63771;52.580;9.734;2022-10-16T00:33:55;100709.69;;;12.26;81.54
75192;BME280;63771;52.580;9.734;2022-10-16T00:36:23;100713.03;;;12.25;81.61
75192;BME280;63771;52.580;9.734;2022-10-16T00:38:53;100702.78;;;12.25;81.30
75192;BME280;63771;52.580;9.734;2022-10-16T00:41:20;100702.78;;;12.25;81.19
75192;BME280;63771;52.580;9.734;2022-10-16T00:43:52;100704.56;;;12.26;81.37
75192;BME280;63771;52.580;9.734;2022-10-16T00:46:25;100709.81;;;12.27;81.31
75192;BME280;63771;52.580;9.734;2022-10-16T00:49:01;100703.81;;;12.27;81.22
75192;BME280;63771;52.580;9.734;2022-10-16T00:51:33;100709.69;;;12.26;80.99
75192;BME280;63771;52.580;9.734;2022-10-16T00:53:59;100714.16;;;12.28;80.94
75192;BME280;63771;52.580;9.734;2022-10-16T00:56:25;100712.50;;;12.29;80.89
75192;BME280;63771;52.580;9.734;2022-10-16T00:58:51;100699.69;;;12.29;80.66
75192;BME280;63771;52.580;9.734;2022-10-16T01:01:17;100714.25;;;12.30;80.70
75192;BME280;63771;52.580;9.734;2022-10-16T01:03:42;100716.03;;;12.31;80.62
75192;BME280;63771;52.580;9.734;2022-10-16T01:06:11;100709.25;;;12.32;80.40
75192;BME280;63771;52.580;9.734;2022-10-16T01:09:13;100705.94;;;12.33;80.34
75192;BME280;63771;52.580;9.734;2022-10-16T01:11:51;100714.50;;;12.33;80.57
75192;BME280;63771;52.580;9.734;2022-10-16T01:17:13;100712.84;;;12.34;80.46
75192;BME280;63771;52.580;9.734;2022-10-16T01:22:37;100718.06;;;12.35;80.45
75192;BME280;63771;52.580;9.734;2022-10-16T01:25:05;100720.63;;;12.35;80.49
75192;BME280;63771;52.580;9.734;2022-10-16T01:27:35;100730.94;;;12.37;80.58
75192;BME280;63771;52.580;9.734;2022-10-16T01:30:09;100726.63;;;12.36;80.95
75192;BME280;63771;52.580;9.734;2022-10-16T01:37:39;100726.50;;;12.34;81.01
75192;BME280;63771;52.580;9.734;2022-10-16T01:40:10;100734.19;;;12.34;81.49
75192;BME280;63771;52.580;9.734;2022-10-16T01:42:43;100733.94;;;12.31;81.46
75192;BME280;63771;52.580;9.734;2022-10-16T01:45:13;100731.38;;;12.31;81.59
75192;BME280;63771;52.580;9.734;2022-10-16T01:47:41;100733.94;;;12.31;81.58
75192;BME280;63771;52.580;9.734;2022-10-16T01:50:08;100732.16;;;12.30;82.07
75192;BME280;63771;52.580;9.734;2022-10-16T01:52:40;100737.19;;;12.28;82.17
75192;BME280;63771;52.580;9.734;2022-10-16T01:55:09;100742.19;;;12.27;82.19
75192;BME280;63771;52.580;9.734;2022-10-16T01:57:38;100746.38;;;12.26;82.47
75192;BME280;63771;52.580;9.734;2022-10-16T02:00:09;100742.84;;;12.24;82.55
75192;BME280;63771;52.580;9.734;2022-10-16T02:02:35;100734.91;;;12.21;82.76
75192;BME280;63771;52.580;9.734;2022-10-16T02:05:08;100739.94;;;12.20;82.93
75192;BME280;63771;52.580;9.734;2022-10-16T02:07:35;100742.38;;;12.18;82.92
75192;BME280;63771;52.580;9.734;2022-10-16T02:10:00;100731.91;;;12.15;83.09
75192;BME280;63771;52.580;9.734;2022-10-16T02:12:28;100717.00;;;12.10;82.92
75192;BME280;63771;52.580;9.734;2022-10-16T02:14:56;100734.91;;;12.10;83.12
75192;BME280;63771;52.580;9.734;2022-10-16T02:17:22;100734.91;;;12.10;83.37
75192;BME280;63771;52.580;9.734;2022-10-16T02:19:49;100737.22;;;12.07;83.27
75192;BME280;63771;52.580;9.734;2022-10-16T02:22:30;100738.75;;;12.05;83.61
75192;BME280;63771;52.580;9.734;2022-10-16T02:25:10;100752.09;;;12.00;83.73
75192;BME280;63771;52.580;9.734;2022-10-16T02:30:34;100754.19;;;11.94;84.21
75192;BME280;63771;52.580;9.734;2022-10-16T02:33:02;100756.53;;;11.91;84.51
75192;BME280;63771;52.580;9.734;2022-10-16T02:35:31;100765.50;;;11.86;84.15
75192;BME280;63771;52.580;9.734;2022-10-16T02:37:57;100766.38;;;11.87;84.56
75192;BME280;63771;52.580;9.734;2022-10-16T02:40:24;100760.13;;;11.83;84.78
75192;BME280;63771;52.580;9.734;2022-10-16T02:42:52;100764.22;;;11.81;84.59
75192;BME280;63771;52.580;9.734;2022-10-16T02:45:18;100761.41;;;11.78;84.87
75192;BME280;63771;52.580;9.734;2022-10-16T02:47:44;100752.63;;;11.74;85.02
75192;BME280;63771;52.580;9.734;2022-10-16T02:50:09;100746.13;;;11.68;85.03
75192;BME280;63771;52.580;9.734;2022-10-16T02:52:35;100755.56;;;11.69;85.10
75192;BME280;63771;52.580;9.734;2022-10-16T02:55:00;100754.31;;;11.64;85.20
75192;BME280;63771;52.580;9.734;2022-10-16T02:57:26;100761.00;;;11.62;85.20
75192;BME280;63771;52.580;9.734;2022-10-16T02:59:51;100760.09;;;11.61;85.32
75192;BME280;63771;52.580;9.734;2022-10-16T03:02:16;100758.06;;;11.57;85.60
75192;BME280;63771;52.580;9.734;2022-10-16T03:04:42;100757.84;;;11.54;85.47
75192;BME280;63771;52.580;9.734;2022-10-16T03:07:07;100755.94;;;11.52;85.46
75192;BME280;63771;52.580;9.734;2022-10-16T03:09:33;100756.59;;;11.49;85.86
75192;BME280;63771;52.580;9.734;2022-10-16T03:11:58;100762.34;;;11.46;85.84
75192;BME280;63771;52.580;9.734;2022-10-16T03:14:23;100767.22;;;11.43;85.91
75192;BME280;63771;52.580;9.734;2022-10-16T03:16:49;100769.78;;;11.43;85.90
75192;BME280;63771;52.580;9.734;2022-10-16T03:19:17;100754.19;;;11.40;86.07
75192;BME280;63771;52.580;9.734;2022-10-16T03:21:42;100771.97;;;11.39;86.34
75192;BME280;63771;52.580;9.734;2022-10-16T03:24:08;100771.81;;;11.37;86.64
75192;BME280;63771;52.580;9.734;2022-10-16T03:26:33;100771.72;;;11.36;86.37
75192;BME280;63771;52.580;9.734;2022-10-16T03:28:58;100772.38;;;11.33;86.49
75192;BME280;63771;52.580;9.734;2022-10-16T03:31:24;100768.03;;;11.32;86.69
75192;BME280;63771;52.580;9.734;2022-10-16T03:33:49;100763.69;;;11.31;86.50
75192;BME280;63771;52.580;9.734;2022-10-16T03:36:14;100766.13;;;11.30;86.72
75192;BME280;63771;52.580;9.734;2022-10-16T03:38:40;100764.34;;;11.29;86.78
75192;BME280;63771;52.580;9.734;2022-10-16T03:41:05;100765.13;;;11.28;86.80
75192;BME280;63771;52.580;9.734;2022-10-16T03:43:32;100769.19;;;11.26;87.05
75192;BME280;63771;52.580;9.734;2022-10-16T03:45:58;100760.66;;;11.25;87.10
75192;BME280;63771;52.580;9.734;2022-10-16T03:48:23;100765.66;;;11.23;86.88
75192;BME280;63771;52.580;9.734;2022-10-16T03:50:48;100762.72;;;11.19;87.18
75192;BME280;63771;52.580;9.734;2022-10-16T03:53:15;100766.06;;;11.18;87.18
75192;BME280;63771;52.580;9.734;2022-10-16T03:55:41;100755.56;;;11.15;86.98
75192;BME280;63771;52.580;9.734;2022-10-16T03:58:07;100750.22;;;11.12;87.17
75192;BME280;63771;52.580;9.734;2022-10-16T04:00:33;100758.91;;;11.14;87.32
75192;BME280;63771;52.580;9.734;2022-10-16T04:02:58;100765.53;;;11.12;87.44
75192;BME280;63771;52.580;9.734;2022-10-16T04:05:23;100764.78;;;11.13;87.69
75192;BME280;63771;52.580;9.734;2022-10-16T04:07:49;100768.09;;;11.12;87.73
75192;BME280;63771;52.580;9.734;2022-10-16T04:10:14;100763.75;;;11.11;87.83
75192;BME280;63771;52.580;9.734;2022-10-16T04:12:39;100774.84;;;11.11;87.47
75192;BME280;63771;52.580;9.734;2022-10-16T04:15:05;100782.41;;;11.10;87.50
75192;BME280;63771;52.580;9.734;2022-10-16T04:17:30;100795.94;;;11.09;87.41
75192;BME280;63771;52.580;9.734;2022-10-16T04:19:55;100802.59;;;11.07;87.53
75192;BME280;63771;52.580;9.734;2022-10-16T04:22:21;100805.78;;;11.04;87.54
75192;BME280;63771;52.580;9.734;2022-10-16T04:24:46;100808.22;;;11.03;87.56
75192;BME280;63771;52.580;9.734;2022-10-16T04:27:11;100796.97;;;11.01;87.78
75192;BME280;63771;52.580;9.734;2022-10-16T04:29:37;100786.28;;;10.94;87.59
75192;BME280;63771;52.580;9.734;2022-10-16T04:32:02;100788.03;;;10.95;87.43
75192;BME280;63771;52.580;9.734;2022-10-16T04:34:27;100796.25;;;10.91;87.43
75192;BME280;63771;52.580;9.734;2022-10-16T04:36:53;100797.66;;;10.88;87.37
75192;BME280;63771;52.580;9.734;2022-10-16T04:39:18;100801.59;;;10.84;87.44
75192;BME280;63771;52.580;9.734;2022-10-16T04:41:44;100801.88;;;10.77;87.55
75192;BME280;63771;52.580;9.734;2022-10-16T04:44:09;100811.19;;;10.77;87.42
75192;BME280;63771;52.580;9.734;2022-10-16T04:46:34;100803.28;;;10.74;87.54
75192;BME280;63771;52.580;9.734;2022-10-16T04:49:00;100799.84;;;10.73;87.82
75192;BME280;63771;52.580;9.734;2022-10-16T04:51:25;100802.28;;;10.71;87.80
75192;BME280;63771;52.580;9.734;2022-10-16T04:53:52;100796.28;;;10.71;88.39
75192;BME280;63771;52.580;9.734;2022-10-16T04:56:18;100803.16;;;10.72;88.72
75192;BME280;63771;52.580;9.734;2022-10-16T04:58:43;100806.72;;;10.74;88.70
75192;BME280;63771;52.580;9.734;2022-10-16T05:01:08;100804.31;;;10.76;89.02
75192;BME280;63771;52.580;9.734;2022-10-16T05:03:34;100811.44;;;10.80;89.26
75192;BME280;63771;52.580;9.734;2022-10-16T05:05:59;100807.75;;;10.76;89.36
75192;BME280;63771;52.580;9.734;2022-10-16T05:08:25;100828.00;;;10.85;89.32
75192;BME280;63771;52.580;9.734;2022-10-16T05:10:50;100838.59;;;10.89;89.32
75192;BME280;63771;52.580;9.734;2022-10-16T05:13:15;100835.28;;;10.90;89.71
75192;BME280;63771;52.580;9.734;2022-10-16T05:15:41;100838.22;;;10.95;89.54
75192;BME280;63771;52.580;9.734;2022-10-16T05:18:06;100835.81;;;10.96;89.62
75192;BME280;63771;52.580;9.734;2022-10-16T05:20:31;100834.25;;;10.98;89.42
75192;BME280;63771;52.580;9.734;2022-10-16T05:22:57;100835.25;;;11.01;89.63
75192;BME280;63771;52.580;9.734;2022-10-16T05:25:22;100831.19;;;11.03;89.79
75192;BME280;63771;52.580;9.734;2022-10-16T05:27:48;100834.88;;;11.06;89.45
75192;BME280;63771;52.580;9.734;2022-10-16T05:30:14;100845.22;;;11.08;89.62
75192;BME280;63771;52.580;9.734;2022-10-16T05:32:39;100848.78;;;11.10;89.68
75192;BME280;63771;52.580;9.734;2022-10-16T05:35:05;100848.91;;;11.11;89.83
75192;BME280;63771;52.580;9.734;2022-10-16T05:37:30;100838.84;;;11.13;89.66
75192;BME280;63771;52.580;9.734;2022-10-16T05:39:55;100841.50;;;11.14;89.89
75192;BME280;63771;52.580;9.734;2022-10-16T05:42:21;100842.41;;;11.15;89.48
75192;BME280;63771;52.580;9.734;2022-10-16T05:44:46;100846.72;;;11.16;89.49
75192;BME280;63771;52.580;9.734;2022-10-16T05:47:14;100845.97;;;11.17;89.63
75192;BME280;63771;52.580;9.734;2022-10-16T05:49:40;100833.97;;;11.16;89.52
75192;BME280;63771;52.580;9.734;2022-10-16T05:52:05;100830.41;;;11.14;89.50
75192;BME280;63771;52.580;9.734;2022-10-16T05:54:30;100832.19;;;11.15;89.18
75192;BME280;63771;52.580;9.734;2022-10-16T05:56:56;100842.41;;;11.15;89.41
75192;BME280;63771;52.580;9.734;2022-10-16T05:59:21;100853.38;;;11.14;89.14
75192;BME280;63771;52.580;9.734;2022-10-16T06:01:46;100855.94;;;11.14;89.46
75192;BME280;63771;52.580;9.734;2022-10-16T06:04:11;100855.69;;;11.11;89.38
75192;BME280;63771;52.580;9.734;2022-10-16T06:06:37;100858.50;;;11.14;89.58
75192;BME280;63771;52.580;9.734;2022-10-16T06:09:03;100856.94;;;11.16;89.65
75192;BME280;63771;52.580;9.734;2022-10-16T06:11:31;100864.59;;;11.16;89.50
75192;BME280;63771;52.580;9.734;2022-10-16T06:13:58;100858.88;;;11.18;90.08
75192;BME280;63771;52.580;9.734;2022-10-16T06:16:25;100865.00;;;11.20;89.90
75192;BME280;63771;52.580;9.734;2022-10-16T06:18:52;100851.31;;;11.20;89.76
75192;BME280;63771;52.580;9.734;2022-10-16T06:21:20;100862.81;;;11.25;89.89
75192;BME280;63771;52.580;9.734;2022-10-16T06:23:46;100874.03;;;11.27;90.00
75192;BME280;63771;52.580;9.734;2022-10-16T06:26:14;100870.97;;;11.31;90.03
75192;BME280;63771;52.580;9.734;2022-10-16T06:28:40;100873.00;;;11.35;90.15
75192;BME280;63771;52.580;9.734;2022-10-16T06:31:07;100876.56;;;11.37;89.96
75192;BME280;63771;52.580;9.734;2022-10-16T06:33:33;100881.16;;;11.41;90.15
75192;BME280;63771;52.580;9.734;2022-10-16T06:36:09;100879.75;;;11.45;89.98
75192;BME280;63771;52.580;9.734;2022-10-16T06:38:35;100887.78;;;11.49;89.80
75192;BME280;63771;52.580;9.734;2022-10-16T06:41:01;100877.81;;;11.53;90.24
75192;BME280;63771;52.580;9.734;2022-10-16T06:43:28;100879.06;;;11.58;90.26
75192;BME280;63771;52.580;9.734;2022-10-16T06:45:58;100885.22;;;11.60;90.43
75192;BME280;63771;52.580;9.734;2022-10-16T06:48:24;100884.91;;;11.67;90.34
75192;BME280;63771;52.580;9.734;2022-10-16T06:50:59;100893.84;;;11.72;90.39
75192;BME280;63771;52.580;9.734;2022-10-16T06:53:26;100897.66;;;11.77;90.39
75192;BME280;63771;52.580;9.734;2022-10-16T06:55:52;100904.97;;;11.83;90.50
75192;BME280;63771;52.580;9.734;2022-10-16T06:58:18;100903.03;;;11.90;90.62
75192;BME280;63771;52.580;9.734;2022-10-16T07:00:43;100911.19;;;11.96;90.58
75192;BME280;63771;52.580;9.734;2022-10-16T07:03:08;100902.44;;;12.05;90.94
75192;BME280;63771;52.580;9.734;2022-10-16T07:05:41;100906.50;;;12.13;91.13
75192;BME280;63771;52.580;9.734;2022-10-16T07:08:07;100907.97;;;12.21;90.82
75192;BME280;63771;52.580;9.734;2022-10-16T07:10:33;100906.81;;;12.27;90.83
75192;BME280;63771;52.580;9.734;2022-10-16T07:12:58;100901.28;;;12.33;90.69
75192;BME280;63771;52.580;9.734;2022-10-16T07:15:25;100910.41;;;12.41;90.61
75192;BME280;63771;52.580;9.734;2022-10-16T07:17:51;100912.56;;;12.47;90.26
75192;BME280;63771;52.580;9.734;2022-10-16T07:20:16;100919.06;;;12.53;90.14
75192;BME280;63771;52.580;9.734;2022-10-16T07:22:41;100927.19;;;12.60;89.91
75192;BME280;63771;52.580;9.734;2022-10-16T07:25:07;100928.44;;;12.65;89.98
75192;BME280;63771;52.580;9.734;2022-10-16T07:27:33;100942.59;;;12.71;89.81
75192;BME280;63771;52.580;9.734;2022-10-16T07:29:58;100942.44;;;12.80;89.45
75192;BME280;63771;52.580;9.734;2022-10-16T07:32:23;100936.72;;;12.84;89.45
75192;BME280;63771;52.580;9.734;2022-10-16T07:34:51;100938.47;;;12.95;89.32
75192;BME280;63771;52.580;9.734;2022-10-16T07:37:16;100948.38;;;13.02;88.99
75192;BME280;63771;52.580;9.734;2022-10-16T07:39:42;100951.66;;;13.12;88.71
75192;BME280;63771;52.580;9.734;2022-10-16T07:42:07;100960.78;;;13.20;88.57
75192;BME280;63771;52.580;9.734;2022-10-16T07:44:32;100963.97;;;13.27;88.46
75192;BME280;63771;52.580;9.734;2022-10-16T07:46:58;100969.66;;;13.35;88.24
75192;BME280;63771;52.580;9.734;2022-10-16T07:49:23;100974.47;;;13.42;87.45
75192;BME280;63771;52.580;9.734;2022-10-16T07:51:48;100978.28;;;13.47;87.25
75192;BME280;63771;52.580;9.734;2022-10-16T07:54:14;100976.03;;;13.52;87.21
75192;BME280;63771;52.580;9.734;2022-10-16T07:56:39;100982.38;;;13.57;86.88
75192;BME280;63771;52.580;9.734;2022-10-16T07:59:04;100970.69;;;13.61;86.67
75192;BME280;63771;52.580;9.734;2022-10-16T08:01:30;100978.50;;;13.62;86.52
75192;BME280;63771;52.580;9.734;2022-10-16T08:03:55;100976.28;;;13.67;86.16
75192;BME280;63771;52.580;9.734;2022-10-16T08:06:21;100973.94;;;13.70;85.64
75192;BME280;63771;52.580;9.734;2022-10-16T08:08:47;100980.97;;;13.72;85.69
75192;BME280;63771;52.580;9.734;2022-10-16T08:11:13;100983.75;;;13.75;85.63
75192;BME280;63771;52.580;9.734;2022-10-16T08:13:39;100981.28;;;13.77;85.29
75192;BME280;63771;52.580;9.734;2022-10-16T08:16:04;100993.47;;;13.79;84.85
75192;BME280;63771;52.580;9.734;2022-10-16T08:18:34;100995.25;;;13.80;84.19
75192;BME280;63771;52.580;9.734;2022-10-16T08:21:01;101004.06;;;13.84;84.01
75192;BME280;63771;52.580;9.734;2022-10-16T08:23:27;101011.06;;;13.87;83.74
75192;BME280;63771;52.580;9.734;2022-10-16T08:25:53;101020.56;;;13.88;83.67
75192;BME280;63771;52.580;9.734;2022-10-16T08:28:19;101022.22;;;13.87;83.60
75192;BME280;63771;52.580;9.734;2022-10-16T08:30:45;101022.22;;;13.87;83.74
75192;BME280;63771;52.580;9.734;2022-10-16T08:33:10;101031.16;;;13.92;83.62
75192;BME280;63771;52.580;9.734;2022-10-16T08:35:36;101032.38;;;13.97;83.74
75192;BME280;63771;52.580;9.734;2022-10-16T08:38:05;101025.91;;;14.02;83.83
75192;BME280;63771;52.580;9.734;2022-10-16T08:40:32;101017.78;;;14.08;83.60
75192;BME280;63771;52.580;9.734;2022-10-16T08:48:50;101030.69;;;14.33;82.69
75192;BME280;63771;52.580;9.734;2022-10-16T08:51:24;101037.16;;;14.40;82.52
75192;BME280;63771;52.580;9.734;2022-10-16T08:53:54;101041.06;;;14.46;82.32
75192;BME280;63771;52.580;9.734;2022-10-16T08:56:20;101041.63;;;14.54;82.21
75192;BME280;63771;52.580;9.734;2022-10-16T08:58:46;101047.19;;;14.60;81.45
75192;BME280;63771;52.580;9.734;2022-10-16T09:01:15;101048.75;;;14.70;81.25
75192;BME280;63771;52.580;9.734;2022-10-16T09:11:54;101062.13;;;14.89;80.21
75192;BME280;63771;52.580;9.734;2022-10-16T09:14:40;101056.28;;;14.92;79.54
75192;BME280;63771;52.580;9.734;2022-10-16T09:25:28;101079.59;;;15.56;76.76
75192;BME280;63771;52.580;9.734;2022-10-16T09:27:54;101080.75;;;15.73;75.92
75192;BME280;63771;52.580;9.734;2022-10-16T09:30:21;101087.59;;;15.86;75.76
75192;BME280;63771;52.580;9.734;2022-10-16T09:32:49;101091.78;;;15.97;75.04
75192;BME280;63771;52.580;9.734;2022-10-16T09:35:19;101083.69;;;16.04;73.19
75192;BME280;63771;52.580;9.734;2022-10-16T09:37:47;101082.78;;;16.04;73.23
75192;BME280;63771;52.580;9.734;2022-10-16T09:40:37;101093.59;;;15.98;73.93
75192;BME280;63771;52.580;9.734;2022-10-16T09:48:31;101098.41;;;15.94;74.70
75192;BME280;63771;52.580;9.734;2022-10-16T09:51:01;101110.19;;;15.90;73.78
75192;BME280;63771;52.580;9.734;2022-10-16T09:53:39;101103.94;;;15.86;74.01
75192;BME280;63771;52.580;9.734;2022-10-16T09:56:04;101105.63;;;15.86;74.87
75192;BME280;63771;52.580;9.734;2022-10-16T09:58:31;101116.22;;;15.90;73.84
75192;BME280;63771;52.580;9.734;2022-10-16T10:00:58;101108.00;;;15.96;74.77
75192;BME280;63771;52.580;9.734;2022-10-16T10:03:36;101111.19;;;16.05;75.63
75192;BME280;63771;52.580;9.734;2022-10-16T10:08:58;101111.13;;;16.30;74.69
75192;BME280;63771;52.580;9.734;2022-10-16T10:14:20;101108.56;;;16.57;73.22
75192;BME280;63771;52.580;9.734;2022-10-16T10:16:47;101116.88;;;16.66;72.56
75192;BME280;63771;52.580;9.734;2022-10-16T10:19:18;101104.56;;;16.75;70.12
75192;BME280;63771;52.580;9.734;2022-10-16T10:21:44;101109.44;;;16.84;70.97
75192;BME280;63771;52.580;9.734;2022-10-16T10:24:14;101110.69;;;16.90;71.07
75192;BME280;63771;52.580;9.734;2022-10-16T10:26:54;101113.84;;;17.00;70.62
75192;BME280;63771;52.580;9.734;2022-10-16T10:32:32;101115.63;;;17.14;69.19
75192;BME280;63771;52.580;9.734;2022-10-16T10:35:16;101115.09;;;17.19;67.00
75192;BME280;63771;52.580;9.734;2022-10-16T10:38:06;101130.78;;;17.09;66.21
75192;BME280;63771;52.580;9.734;2022-10-16T10:46:04;101142.94;;;16.70;67.67
75192;BME280;63771;52.580;9.734;2022-10-16T10:51:32;101126.97;;;16.63;69.01
75192;BME280;63771;52.580;9.734;2022-10-16T10:54:17;101130.66;;;16.66;68.26
75192;BME280;63771;52.580;9.734;2022-10-16T10:56:51;101125.56;;;16.68;68.64
75192;BME280;63771;52.580;9.734;2022-10-16T10:59:37;101125.03;;;16.72;69.21
75192;BME280;63771;52.580;9.734;2022-10-16T11:07:45;101145.50;;;16.84;68.60
75192;BME280;63771;52.580;9.734;2022-10-16T11:10:16;101144.03;;;16.87;68.51
75192;BME280;63771;52.580;9.734;2022-10-16T11:12:49;101144.34;;;16.92;68.49
75192;BME280;63771;52.580;9.734;2022-10-16T11:15:28;101144.13;;;17.02;68.40
75192;BME280;63771;52.580;9.734;2022-10-16T11:18:03;101146.56;;;17.14;67.02
75192;BME280;63771;52.580;9.734;2022-10-16T11:20:34;101149.09;;;17.27;66.52
75192;BME280;63771;52.580;9.734;2022-10-16T11:23:09;101145.38;;;17.37;65.81
75192;BME280;63771;52.580;9.734;2022-10-16T11:25:35;101154.31;;;17.42;66.08
75192;BME280;63771;52.580;9.734;2022-10-16T11:28:23;101145.00;;;17.44;65.08
75192;BME280;63771;52.580;9.734;2022-10-16T11:30:57;101155.19;;;17.42;65.55
75192;BME280;63771;52.580;9.734;2022-10-16T11:33:32;101164.81;;;17.45;64.19
75192;BME280;63771;52.580;9.734;2022-10-16T11:36:20;101173.75;;;17.37;64.20
75192;BME280;63771;52.580;9.734;2022-10-16T11:47:45;101181.28;;;17.47;64.07
75192;BME280;63771;52.580;9.734;2022-10-16T11:50:38;101183.06;;;17.48;64.46
75192;BME280;63771;52.580;9.734;2022-10-16T11:53:16;101182.06;;;17.46;63.67
75192;BME280;63771;52.580;9.734;2022-10-16T11:55:46;101182.06;;;17.46;62.56
75192;BME280;63771;52.580;9.734;2022-10-16T11:58:29;101178.53;;;17.44;62.94
75192;BME280;63771;52.580;9.734;2022-10-16T12:01:27;101184.66;;;17.46;63.68
75192;BME280;63771;52.580;9.734;2022-10-16T12:04:36;101187.31;;;17.47;62.26
75192;BME280;63771;52.580;9.734;2022-10-16T12:07:20;101184.66;;;17.46;63.56
75192;BME280;63771;52.580;9.734;2022-10-16T12:09:47;101186.72;;;17.52;62.97
75192;BME280;63771;52.580;9.734;2022-10-16T12:12:25;101196.22;;;17.53;62.47
75192;BME280;63771;52.580;9.734;2022-10-16T12:15:20;101192.09;;;17.55;61.96
75192;BME280;63771;52.580;9.734;2022-10-16T12:17:46;101193.66;;;17.53;62.07
75192;BME280;63771;52.580;9.734;2022-10-16T12:22:51;101202.56;;;17.58;62.24
75192;BME280;63771;52.580;9.734;2022-10-16T12:25:25;101200.09;;;17.59;61.78
75192;BME280;63771;52.580;9.734;2022-10-16T12:30:35;101203.47;;;17.58;62.41
75192;BME280;63771;52.580;9.734;2022-10-16T12:33:04;101201.00;;;17.60;61.90
75192;BME280;63771;52.580;9.734;2022-10-16T12:35:33;101201.69;;;17.57;62.43
75192;BME280;63771;52.580;9.734;2022-10-16T12:38:18;101198.28;;;17.58;62.90
75192;BME280;63771;52.580;9.734;2022-10-16T12:40:47;101202.06;;;17.63;62.03
75192;BME280;63771;52.580;9.734;2022-10-16T12:45:45;101212.19;;;17.73;62.99
75192;BME280;63771;52.580;9.734;2022-10-16T12:48:20;101209.97;;;17.80;63.00
75192;BME280;63771;52.580;9.734;2022-10-16T12:50:46;101224.94;;;17.85;62.79
75192;BME280;63771;52.580;9.734;2022-10-16T12:53:25;101220.69;;;17.86;61.37
75192;BME280;63771;52.580;9.734;2022-10-16T12:56:08;101214.88;;;17.90;61.98
75192;BME280;63771;52.580;9.734;2022-10-16T13:01:42;101229.47;;;17.89;57.41
75192;BME280;63771;52.580;9.734;2022-10-16T13:20:52;101243.53;;;17.66;59.84
75192;BME280;63771;52.580;9.734;2022-10-16T13:23:26;101245.31;;;17.67;58.83
75192;BME280;63771;52.580;9.734;2022-10-16T13:28:38;101246.81;;;17.77;60.43
75192;BME280;63771;52.580;9.734;2022-10-16T13:31:04;101243.44;;;17.78;59.42
75192;BME280;63771;52.580;9.734;2022-10-16T13:33:35;101243.81;;;17.84;59.34
75192;BME280;63771;52.580;9.734;2022-10-16T13:36:02;101247.19;;;17.83;59.48
75192;BME280;63771;52.580;9.734;2022-10-16T13:38:33;101264.75;;;17.89;60.58
75192;BME280;63771;52.580;9.734;2022-10-16T13:41:04;101256.03;;;17.87;58.88
75192;BME280;63771;52.580;9.734;2022-10-16T13:43:59;101255.91;;;17.85;59.71
75192;BME280;63771;52.580;9.734;2022-10-16T13:46:25;101263.56;;;17.84;59.80
75192;BME280;63771;52.580;9.734;2022-10-16T13:49:02;101263.56;;;17.84;59.10
75192;BME280;63771;52.580;9.734;2022-10-16T13:51:30;101267.75;;;17.82;59.93
75192;BME280;63771;52.580;9.734;2022-10-16T13:53:57;101262.50;;;17.80;59.98
75192;BME280;63771;52.580;9.734;2022-10-16T13:56:26;101272.72;;;17.79;58.57
75192;BME280;63771;52.580;9.734;2022-10-16T13:59:07;101264.00;;;17.77;59.14
75192;BME280;63771;52.580;9.734;2022-10-16T14:01:47;101269.06;;;17.75;59.73
75192;BME280;63771;52.580;9.734;2022-10-16T14:04:13;101275.00;;;17.74;60.19
75192;BME280;63771;52.580;9.734;2022-10-16T14:06:42;101279.50;;;17.77;60.45
75192;BME280;63771;52.580;9.734;2022-10-16T14:09:25;101283.75;;;17.76;60.13
75192;BME280;63771;52.580;9.734;2022-10-16T14:11:55;101290.41;;;17.72;60.32
75192;BME280;63771;52.580;9.734;2022-10-16T14:14:22;101278.19;;;17.70;60.76
75192;BME280;63771;52.580;9.734;2022-10-16T14:16:48;101294.34;;;17.67;60.40
75192;BME280;63771;52.580;9.734;2022-10-16T14:19:20;101297.84;;;17.68;60.70
75192;BME280;63771;52.580;9.734;2022-10-16T14:21:48;101296.94;;;17.67;60.67
75192;BME280;63771;52.580;9.734;2022-10-16T14:24:25;101300.41;;;17.68;61.27
75192;BME280;63771;52.580;9.734;2022-10-16T14:26:50;101305.50;;;17.66;60.93
75192;BME280;63771;52.580;9.734;2022-10-16T14:29:19;101309.03;;;17.68;61.04
75192;BME280;63771;52.580;9.734;2022-10-16T14:31:59;101303.78;;;17.67;60.34
75192;BME280;63771;52.580;9.734;2022-10-16T14:34:26;101311.53;;;17.67;60.24
75192;BME280;63771;52.580;9.734;2022-10-16T14:36:54;101310.66;;;17.66;60.37
75192;BME280;63771;52.580;9.734;2022-10-16T14:39:20;101314.03;;;17.65;60.58
75192;BME280;63771;52.580;9.734;2022-10-16T14:41:48;101310.44;;;17.63;59.74
75192;BME280;63771;52.580;9.734;2022-10-16T14:44:14;101312.72;;;17.59;60.28